Agios Georgios I — SX9857 — position and weather

sailwx.info

Track history (hours):
 
Tides and Currents Weather Stations Pressure Air Temp Water Temp Dewpoint Dewpoint Depression Visibility Wind Speed Wind Dir Waves Ship Positions

Agios Georgios I

Last reported at 2016-May-25 00:33 UTC. Time now 2016-May-25 01:21 UTC.
Position N 37°06' E 025°22'.

Length 59 m; draft 5 m.

Type: Ship (hazmat cat B). MMSI: 239912000.

Date/timePositionNaut miles runAvg speedWind from/ knotsBaromVisibWave heightAir tempDewpointWater temp
2016-May-25 00:33N 37°06' E 025°22'0 0.0
2016-May-24 23:33N 37°06' E 025°22'0 0.0
2016-May-24 22:33N 37°06' E 025°22'0 0.1
2016-May-24 21:33N 37°06' E 025°22'0 0.0
2016-May-24 20:33N 37°06' E 025°22'0 0.1
2016-May-24 19:33N 37°06' E 025°22'0 0.0
2016-May-24 18:33N 37°06' E 025°22'1 1.3
2016-May-24 17:33N 37°06' E 025°21'12 1.2
2016-May-24 07:33N 37°04' E 025°06'7 1.7
2016-May-24 03:31N 37°10' E 025°10'8 8.4
2016-May-24 02:34N 37°18' E 025°14'8 8.1
2016-May-24 01:33N 37°25' E 025°17'3 3.1
2016-May-24 00:34N 37°28' E 025°20'0 0.0
2016-May-23 23:33N 37°28' E 025°20'0 0.0
2016-May-23 22:34N 37°28' E 025°20'0 0.0
2016-May-23 21:33N 37°28' E 025°20'0 0.0
2016-May-23 20:33N 37°28' E 025°20'2 1.9
2016-May-23 19:34N 37°28' E 025°17'8 7.5
2016-May-23 18:33N 37°32' E 025°09'0 0.0
2016-May-23 17:33N 37°32' E 025°09'0 0.0
2016-May-23 16:33N 37°32' E 025°09'0 0.0
2016-May-23 15:33N 37°32' E 025°09'0 0.0
2016-May-23 14:33N 37°32' E 025°09'0 0.0
2016-May-23 13:34N 37°32' E 025°09'7 7.1
2016-May-23 12:33N 37°29' E 025°02'3 0.4
2016-May-23 04:33N 37°29' E 025°05'9 8.5
2016-May-23 03:34N 37°32' E 025°15'9 8.1
2016-May-23 02:28N 37°40' E 025°21'  
2016-May-18 22:04N 37°35' E 025°36'4 8.2
2016-May-18 21:34N 37°34' E 025°31'9 8.1
2016-May-18 20:27N 37°32' E 025°20'7 7.7
2016-May-18 19:34N 37°30' E 025°11'8 7.9
2016-May-18 18:34N 37°27' E 025°02'11 1.1
2016-May-18 08:11N 37°32' E 024°49'36 7.8
2016-May-18 03:33N 37°32' E 024°03'8 8.4
2016-May-18 02:34N 37°34' E 023°53'8 8.0
2016-May-18 01:33N 37°37' E 023°44'9 8.8
2016-May-18 00:33N 37°45' E 023°39'9 8.8
2016-May-17 23:34N 37°54' E 023°35'4 3.6
2016-May-17 22:34N 37°57' E 023°35'0 0.0
2016-May-17 21:34N 37°57' E 023°35'0 0.0
2016-May-17 20:33N 37°57' E 023°35'0 0.0
2016-May-17 19:34N 37°57' E 023°35'0 0.0
2016-May-17 18:34N 37°57' E 023°35'0 0.0
2016-May-17 17:34N 37°57' E 023°35'0 0.0
2016-May-17 16:33N 37°57' E 023°35'0 0.0
2016-May-17 15:34N 37°57' E 023°35'0 0.0
2016-May-17 14:34N 37°57' E 023°35'0 0.0
2016-May-17 13:34N 37°57' E 023°35'0 0.0
2016-May-17 12:34N 37°57' E 023°35'0 0.0
2016-May-17 11:34N 37°57' E 023°35'0 0.0
2016-May-17 10:33N 37°57' E 023°35'0 0.0
2016-May-17 09:34N 37°57' E 023°35'0 0.0
2016-May-17 08:34N 37°57' E 023°35'0 0.0
2016-May-17 07:34N 37°57' E 023°35'0 0.0
2016-May-17 06:33N 37°57' E 023°35'0 0.0
2016-May-17 05:33N 37°57' E 023°35'0 0.3
2016-May-17 04:33N 37°57' E 023°35'0 0.0
2016-May-17 03:34N 37°57' E 023°35'0 0.0
2016-May-17 02:34N 37°57' E 023°35'0 0.0
2016-May-17 01:34N 37°57' E 023°35'0 0.0
2016-May-17 00:33N 37°57' E 023°35'0 0.0
2016-May-16 23:33N 37°57' E 023°35'0 0.0
2016-May-16 22:34N 37°57' E 023°35'0 0.0
2016-May-16 21:34N 37°57' E 023°35'0 0.0
2016-May-16 20:34N 37°57' E 023°35'0 0.0
2016-May-16 19:34N 37°57' E 023°35'0 0.0
2016-May-16 18:33N 37°57' E 023°35'0 0.0
2016-May-16 17:34N 37°57' E 023°35'0 0.0
2016-May-16 16:34N 37°57' E 023°35'0 0.0
2016-May-16 15:34N 37°57' E 023°35'0 0.0
2016-May-16 14:34N 37°57' E 023°35'0 0.0
2016-May-16 13:34N 37°57' E 023°35'0 0.0
2016-May-16 12:34N 37°57' E 023°35'2 2.5
2016-May-16 11:34N 37°55' E 023°35'8 8.0
2016-May-16 10:34N 37°48' E 023°40'8 8.2
2016-May-16 09:33N 37°41' E 023°45'8 7.8
2016-May-16 08:30N 37°38' E 023°55'39 7.6
2016-May-16 03:20N 37°31' E 024°44'6 7.4
2016-May-16 02:33N 37°32' E 024°51'  
Track history (hours):
 
Tides and Currents Weather Stations Pressure Air Temp Water Temp Dewpoint Dewpoint Depression Visibility Wind Speed Wind Dir Waves Ship Positions

Agios Georgios I

Last reported at 2016-May-25 00:33 UTC. Time now 2016-May-25 01:21 UTC.
Position N 37°06' E 025°22'.

Length 59 m; draft 5 m.

Type: Ship (hazmat cat B). MMSI: 239912000.

Date/timePositionNaut miles runAvg speedWind from/ knotsBaromVisibWave heightAir tempDewpointWater temp
2016-May-25 00:33N 37°06' E 025°22'0 0.0
2016-May-24 23:33N 37°06' E 025°22'0 0.0
2016-May-24 22:33N 37°06' E 025°22'0 0.1
2016-May-24 21:33N 37°06' E 025°22'0 0.0
2016-May-24 20:33N 37°06' E 025°22'0 0.1
2016-May-24 19:33N 37°06' E 025°22'0 0.0
2016-May-24 18:33N 37°06' E 025°22'1 1.3
2016-May-24 17:33N 37°06' E 025°21'12 1.2
2016-May-24 07:33N 37°04' E 025°06'7 1.7
2016-May-24 03:31N 37°10' E 025°10'8 8.4
2016-May-24 02:34N 37°18' E 025°14'8 8.1
2016-May-24 01:33N 37°25' E 025°17'3 3.1
2016-May-24 00:34N 37°28' E 025°20'0 0.0
2016-May-23 23:33N 37°28' E 025°20'0 0.0
2016-May-23 22:34N 37°28' E 025°20'0 0.0
2016-May-23 21:33N 37°28' E 025°20'0 0.0
2016-May-23 20:33N 37°28' E 025°20'2 1.9
2016-May-23 19:34N 37°28' E 025°17'8 7.5
2016-May-23 18:33N 37°32' E 025°09'0 0.0
2016-May-23 17:33N 37°32' E 025°09'0 0.0
2016-May-23 16:33N 37°32' E 025°09'0 0.0
2016-May-23 15:33N 37°32' E 025°09'0 0.0
2016-May-23 14:33N 37°32' E 025°09'0 0.0
2016-May-23 13:34N 37°32' E 025°09'7 7.1
2016-May-23 12:33N 37°29' E 025°02'3 0.4
2016-May-23 04:33N 37°29' E 025°05'9 8.5
2016-May-23 03:34N 37°32' E 025°15'9 8.1
2016-May-23 02:28N 37°40' E 025°21'  
2016-May-18 22:04N 37°35' E 025°36'4 8.2
2016-May-18 21:34N 37°34' E 025°31'9 8.1
2016-May-18 20:27N 37°32' E 025°20'7 7.7
2016-May-18 19:34N 37°30' E 025°11'8 7.9
2016-May-18 18:34N 37°27' E 025°02'11 1.1
2016-May-18 08:11N 37°32' E 024°49'36 7.8
2016-May-18 03:33N 37°32' E 024°03'8 8.4
2016-May-18 02:34N 37°34' E 023°53'8 8.0
2016-May-18 01:33N 37°37' E 023°44'9 8.8
2016-May-18 00:33N 37°45' E 023°39'9 8.8
2016-May-17 23:34N 37°54' E 023°35'4 3.6
2016-May-17 22:34N 37°57' E 023°35'0 0.0
2016-May-17 21:34N 37°57' E 023°35'0 0.0
2016-May-17 20:33N 37°57' E 023°35'0 0.0
2016-May-17 19:34N 37°57' E 023°35'0 0.0
2016-May-17 18:34N 37°57' E 023°35'0 0.0
2016-May-17 17:34N 37°57' E 023°35'0 0.0
2016-May-17 16:33N 37°57' E 023°35'0 0.0
2016-May-17 15:34N 37°57' E 023°35'0 0.0
2016-May-17 14:34N 37°57' E 023°35'0 0.0
2016-May-17 13:34N 37°57' E 023°35'0 0.0
2016-May-17 12:34N 37°57' E 023°35'0 0.0
2016-May-17 11:34N 37°57' E 023°35'0 0.0
2016-May-17 10:33N 37°57' E 023°35'0 0.0
2016-May-17 09:34N 37°57' E 023°35'0 0.0
2016-May-17 08:34N 37°57' E 023°35'0 0.0
2016-May-17 07:34N 37°57' E 023°35'0 0.0
2016-May-17 06:33N 37°57' E 023°35'0 0.0
2016-May-17 05:33N 37°57' E 023°35'0 0.3
2016-May-17 04:33N 37°57' E 023°35'0 0.0
2016-May-17 03:34N 37°57' E 023°35'0 0.0
2016-May-17 02:34N 37°57' E 023°35'0 0.0
2016-May-17 01:34N 37°57' E 023°35'0 0.0
2016-May-17 00:33N 37°57' E 023°35'0 0.0
2016-May-16 23:33N 37°57' E 023°35'0 0.0
2016-May-16 22:34N 37°57' E 023°35'0 0.0
2016-May-16 21:34N 37°57' E 023°35'0 0.0
2016-May-16 20:34N 37°57' E 023°35'0 0.0
2016-May-16 19:34N 37°57' E 023°35'0 0.0
2016-May-16 18:33N 37°57' E 023°35'0 0.0
2016-May-16 17:34N 37°57' E 023°35'0 0.0
2016-May-16 16:34N 37°57' E 023°35'0 0.0
2016-May-16 15:34N 37°57' E 023°35'0 0.0
2016-May-16 14:34N 37°57' E 023°35'0 0.0
2016-May-16 13:34N 37°57' E 023°35'0 0.0
2016-May-16 12:34N 37°57' E 023°35'2 2.5
2016-May-16 11:34N 37°55' E 023°35'8 8.0
2016-May-16 10:34N 37°48' E 023°40'8 8.2
2016-May-16 09:33N 37°41' E 023°45'8 7.8
2016-May-16 08:30N 37°38' E 023°55'39 7.6
2016-May-16 03:20N 37°31' E 024°44'6 7.4
2016-May-16 02:33N 37°32' E 024°51'  

Dump ship's entire track history